Terminal Aerodrome Forecast
Issued by NWS Charleston, WV

Current Version | Previous Version | Graphics & Text | Print | Product List | Glossary On
Versions: 1 2 3 4 5 6 7 8 9 10 11 12 13 14 15 16 17 18 19 20 21
102
FTUS41 KRLX 111551 AAA
TAFHTS
TAF AMD
KHTS 111551Z 1116/1212 29005KT P6SM SCT040
      TEMPO 1116/1119 BKN040
     FM120000 25002KT P6SM SCT080
     FM120700 00000KT P6SM BKN080=

USA.gov is the U.S. government's official web portal to all federal, state and local government web resources and services.